sensor_id;sensor_type;location;lat;lon;timestamp;temperature;humidity
21734;DHT22;11029;47.820;10.534;2024-02-21T00:01:33;0.50;80.10
21734;DHT22;11029;47.820;10.534;2024-02-21T00:04:19;0.60;79.10
21734;DHT22;11029;47.820;10.534;2024-02-21T00:07:05;0.50;78.80
21734;DHT22;11029;47.820;10.534;2024-02-21T00:09:50;0.40;78.90
21734;DHT22;11029;47.820;10.534;2024-02-21T00:12:36;0.40;78.70
21734;DHT22;11029;47.820;10.534;2024-02-21T00:15:22;0.40;79.20
21734;DHT22;11029;47.820;10.534;2024-02-21T00:18:08;0.40;79.70
21734;DHT22;11029;47.820;10.534;2024-02-21T00:20:54;0.40;79.60
21734;DHT22;11029;47.820;10.534;2024-02-21T00:23:39;0.50;79.80
21734;DHT22;11029;47.820;10.534;2024-02-21T00:26:25;0.50;79.70
21734;DHT22;11029;47.820;10.534;2024-02-21T00:29:11;0.40;80.10
21734;DHT22;11029;47.820;10.534;2024-02-21T00:31:56;0.40;80.00
21734;DHT22;11029;47.820;10.534;2024-02-21T00:34:43;0.30;79.80
21734;DHT22;11029;47.820;10.534;2024-02-21T00:37:29;0.30;79.90
21734;DHT22;11029;47.820;10.534;2024-02-21T00:40:14;0.20;80.20
21734;DHT22;11029;47.820;10.534;2024-02-21T00:43:05;0.20;79.90
21734;DHT22;11029;47.820;10.534;2024-02-21T00:45:51;0.20;80.60
21734;DHT22;11029;47.820;10.534;2024-02-21T00:48:36;0.20;81.00
21734;DHT22;11029;47.820;10.534;2024-02-21T00:51:22;0.20;81.00
21734;DHT22;11029;47.820;10.534;2024-02-21T00:54:07;0.30;80.80
21734;DHT22;11029;47.820;10.534;2024-02-21T00:56:53;0.30;80.50
21734;DHT22;11029;47.820;10.534;2024-02-21T00:59:38;0.40;80.10
21734;DHT22;11029;47.820;10.534;2024-02-21T01:02:24;0.40;80.00
21734;DHT22;11029;47.820;10.534;2024-02-21T01:05:10;0.50;79.40
21734;DHT22;11029;47.820;10.534;2024-02-21T01:07:56;0.40;79.60
21734;DHT22;11029;47.820;10.534;2024-02-21T01:10:41;0.40;79.90
21734;DHT22;11029;47.820;10.534;2024-02-21T01:13:28;0.40;79.80
21734;DHT22;11029;47.820;10.534;2024-02-21T01:16:13;0.40;79.60
21734;DHT22;11029;47.820;10.534;2024-02-21T01:18:59;0.40;78.90
21734;DHT22;11029;47.820;10.534;2024-02-21T01:21:45;0.40;79.20
21734;DHT22;11029;47.820;10.534;2024-02-21T01:24:30;0.30;79.20
21734;DHT22;11029;47.820;10.534;2024-02-21T01:27:16;0.40;79.20
21734;DHT22;11029;47.820;10.534;2024-02-21T01:30:01;0.40;79.50
21734;DHT22;11029;47.820;10.534;2024-02-21T01:32:47;0.40;79.10
21734;DHT22;11029;47.820;10.534;2024-02-21T01:35:34;0.50;79.20
21734;DHT22;11029;47.820;10.534;2024-02-21T01:38:19;0.40;78.50
21734;DHT22;11029;47.820;10.534;2024-02-21T01:41:06;0.30;78.90
21734;DHT22;11029;47.820;10.534;2024-02-21T01:43:52;0.40;79.50
21734;DHT22;11029;47.820;10.534;2024-02-21T01:46:37;0.40;80.20
21734;DHT22;11029;47.820;10.534;2024-02-21T01:49:23;0.40;79.50
21734;DHT22;11029;47.820;10.534;2024-02-21T01:52:10;0.40;80.00
21734;DHT22;11029;47.820;10.534;2024-02-21T01:54:57;0.40;79.00
21734;DHT22;11029;47.820;10.534;2024-02-21T01:57:44;0.30;79.50
21734;DHT22;11029;47.820;10.534;2024-02-21T02:00:33;0.30;79.20
21734;DHT22;11029;47.820;10.534;2024-02-21T02:03:19;0.20;79.50
21734;DHT22;11029;47.820;10.534;2024-02-21T02:06:05;0.20;79.50
21734;DHT22;11029;47.820;10.534;2024-02-21T02:08:54;0.20;79.90
21734;DHT22;11029;47.820;10.534;2024-02-21T02:11:39;0.30;79.20
21734;DHT22;11029;47.820;10.534;2024-02-21T02:14:25;0.30;79.60
21734;DHT22;11029;47.820;10.534;2024-02-21T02:17:11;0.30;79.30
21734;DHT22;11029;47.820;10.534;2024-02-21T02:19:57;0.30;79.90
21734;DHT22;11029;47.820;10.534;2024-02-21T02:22:43;0.30;79.40
21734;DHT22;11029;47.820;10.534;2024-02-21T02:25:30;0.30;78.70
21734;DHT22;11029;47.820;10.534;2024-02-21T02:28:15;0.20;79.00
21734;DHT22;11029;47.820;10.534;2024-02-21T02:31:01;0.20;79.30
21734;DHT22;11029;47.820;10.534;2024-02-21T02:33:47;0.20;80.10
21734;DHT22;11029;47.820;10.534;2024-02-21T02:36:35;0.30;79.80
21734;DHT22;11029;47.820;10.534;2024-02-21T02:39:21;0.30;80.40
21734;DHT22;11029;47.820;10.534;2024-02-21T02:42:06;0.30;80.30
21734;DHT22;11029;47.820;10.534;2024-02-21T02:44:51;0.30;80.50
21734;DHT22;11029;47.820;10.534;2024-02-21T02:47:39;0.40;80.40
21734;DHT22;11029;47.820;10.534;2024-02-21T02:50:25;0.40;80.10
21734;DHT22;11029;47.820;10.534;2024-02-21T02:53:11;0.30;78.90
21734;DHT22;11029;47.820;10.534;2024-02-21T02:55:57;0.20;78.80
21734;DHT22;11029;47.820;10.534;2024-02-21T02:58:43;0.10;79.40
21734;DHT22;11029;47.820;10.534;2024-02-21T03:01:33;0.00;79.80
21734;DHT22;11029;47.820;10.534;2024-02-21T03:04:20;0.00;80.00
21734;DHT22;11029;47.820;10.534;2024-02-21T03:07:06;0.10;79.80
21734;DHT22;11029;47.820;10.534;2024-02-21T03:09:52;0.10;79.90
21734;DHT22;11029;47.820;10.534;2024-02-21T03:12:39;0.10;79.70
21734;DHT22;11029;47.820;10.534;2024-02-21T03:15:25;0.10;79.60
21734;DHT22;11029;47.820;10.534;2024-02-21T03:18:10;0.10;80.10
21734;DHT22;11029;47.820;10.534;2024-02-21T03:20:56;0.20;80.40
21734;DHT22;11029;47.820;10.534;2024-02-21T03:23:41;0.20;80.40
21734;DHT22;11029;47.820;10.534;2024-02-21T03:26:26;0.20;79.70
21734;DHT22;11029;47.820;10.534;2024-02-21T03:29:12;0.20;80.20
21734;DHT22;11029;47.820;10.534;2024-02-21T03:31:57;0.20;79.40
21734;DHT22;11029;47.820;10.534;2024-02-21T03:34:43;0.10;80.20
21734;DHT22;11029;47.820;10.534;2024-02-21T03:37:29;0.20;79.80
21734;DHT22;11029;47.820;10.534;2024-02-21T03:40:14;0.20;80.10
21734;DHT22;11029;47.820;10.534;2024-02-21T03:43:00;0.20;79.60
21734;DHT22;11029;47.820;10.534;2024-02-21T03:45:46;0.20;79.30
21734;DHT22;11029;47.820;10.534;2024-02-21T03:48:31;0.10;79.60
21734;DHT22;11029;47.820;10.534;2024-02-21T03:51:17;0.10;79.90
21734;DHT22;11029;47.820;10.534;2024-02-21T03:54:02;0.10;79.80
21734;DHT22;11029;47.820;10.534;2024-02-21T03:56:48;0.20;79.80
21734;DHT22;11029;47.820;10.534;2024-02-21T03:59:34;0.20;79.70
21734;DHT22;11029;47.820;10.534;2024-02-21T04:02:19;0.20;79.90
21734;DHT22;11029;47.820;10.534;2024-02-21T04:05:05;0.20;79.70
21734;DHT22;11029;47.820;10.534;2024-02-21T04:07:55;0.20;79.60
21734;DHT22;11029;47.820;10.534;2024-02-21T04:10:41;0.10;80.50
21734;DHT22;11029;47.820;10.534;2024-02-21T04:13:27;0.10;80.50
21734;DHT22;11029;47.820;10.534;2024-02-21T04:16:13;0.10;80.50
21734;DHT22;11029;47.820;10.534;2024-02-21T04:18:58;0.20;80.60
21734;DHT22;11029;47.820;10.534;2024-02-21T04:21:44;0.20;80.40
21734;DHT22;11029;47.820;10.534;2024-02-21T04:24:29;0.20;80.50
21734;DHT22;11029;47.820;10.534;2024-02-21T04:27:15;0.20;80.50
21734;DHT22;11029;47.820;10.534;2024-02-21T04:30:01;0.20;80.00
21734;DHT22;11029;47.820;10.534;2024-02-21T04:32:47;0.20;80.00
21734;DHT22;11029;47.820;10.534;2024-02-21T04:35:33;0.20;80.50
21734;DHT22;11029;47.820;10.534;2024-02-21T04:38:19;0.30;80.60
21734;DHT22;11029;47.820;10.534;2024-02-21T04:41:05;0.20;81.00
21734;DHT22;11029;47.820;10.534;2024-02-21T04:43:50;0.20;80.50
21734;DHT22;11029;47.820;10.534;2024-02-21T04:46:36;0.20;80.10
21734;DHT22;11029;47.820;10.534;2024-02-21T04:49:21;0.20;80.00
21734;DHT22;11029;47.820;10.534;2024-02-21T04:52:07;0.10;79.80
21734;DHT22;11029;47.820;10.534;2024-02-21T04:54:52;0.00;79.90
21734;DHT22;11029;47.820;10.534;2024-02-21T04:57:38;0.10;80.00
21734;DHT22;11029;47.820;10.534;2024-02-21T05:00:23;0.00;79.60
21734;DHT22;11029;47.820;10.534;2024-02-21T05:03:09;0.00;79.80
21734;DHT22;11029;47.820;10.534;2024-02-21T05:05:55;0.00;80.10
21734;DHT22;11029;47.820;10.534;2024-02-21T05:08:40;-0.10;80.40
21734;DHT22;11029;47.820;10.534;2024-02-21T05:11:26;-0.10;80.50
21734;DHT22;11029;47.820;10.534;2024-02-21T05:14:12;-0.10;80.60
21734;DHT22;11029;47.820;10.534;2024-02-21T05:16:58;-0.10;80.50
21734;DHT22;11029;47.820;10.534;2024-02-21T05:19:43;-0.20;79.80
21734;DHT22;11029;47.820;10.534;2024-02-21T05:22:29;-0.20;80.40
21734;DHT22;11029;47.820;10.534;2024-02-21T05:25:15;-0.20;80.70
21734;DHT22;11029;47.820;10.534;2024-02-21T05:28:01;-0.30;79.80
21734;DHT22;11029;47.820;10.534;2024-02-21T05:30:48;-0.20;80.80
21734;DHT22;11029;47.820;10.534;2024-02-21T05:33:34;-0.20;80.40
21734;DHT22;11029;47.820;10.534;2024-02-21T05:36:20;-0.20;79.60
21734;DHT22;11029;47.820;10.534;2024-02-21T05:39:05;-0.20;79.90
21734;DHT22;11029;47.820;10.534;2024-02-21T05:41:51;-0.30;80.10
21734;DHT22;11029;47.820;10.534;2024-02-21T05:44:37;-0.40;79.30
21734;DHT22;11029;47.820;10.534;2024-02-21T05:47:22;-0.50;80.20
21734;DHT22;11029;47.820;10.534;2024-02-21T05:50:08;-0.60;81.30
21734;DHT22;11029;47.820;10.534;2024-02-21T05:52:55;-0.60;81.50
21734;DHT22;11029;47.820;10.534;2024-02-21T05:55:41;-0.50;81.70
21734;DHT22;11029;47.820;10.534;2024-02-21T05:58:27;-0.40;81.60
21734;DHT22;11029;47.820;10.534;2024-02-21T06:01:12;-0.30;81.90
21734;DHT22;11029;47.820;10.534;2024-02-21T06:03:58;-0.20;81.20
21734;DHT22;11029;47.820;10.534;2024-02-21T06:06:44;-0.10;81.30
21734;DHT22;11029;47.820;10.534;2024-02-21T06:09:29;-0.10;80.80
21734;DHT22;11029;47.820;10.534;2024-02-21T06:12:14;-0.10;81.00
21734;DHT22;11029;47.820;10.534;2024-02-21T06:15:00;0.00;80.80
21734;DHT22;11029;47.820;10.534;2024-02-21T06:17:45;0.00;80.70
21734;DHT22;11029;47.820;10.534;2024-02-21T06:20:30;0.00;80.90
21734;DHT22;11029;47.820;10.534;2024-02-21T06:23:16;0.10;81.00
21734;DHT22;11029;47.820;10.534;2024-02-21T06:26:02;0.10;80.10
21734;DHT22;11029;47.820;10.534;2024-02-21T06:28:49;0.00;80.80
21734;DHT22;11029;47.820;10.534;2024-02-21T06:31:35;0.10;80.70
21734;DHT22;11029;47.820;10.534;2024-02-21T06:34:21;0.10;80.80
21734;DHT22;11029;47.820;10.534;2024-02-21T06:37:07;0.10;80.70
21734;DHT22;11029;47.820;10.534;2024-02-21T06:39:52;0.20;81.00
21734;DHT22;11029;47.820;10.534;2024-02-21T06:42:38;0.30;81.00
21734;DHT22;11029;47.820;10.534;2024-02-21T06:45:23;0.40;80.60
21734;DHT22;11029;47.820;10.534;2024-02-21T06:48:09;0.40;80.20
21734;DHT22;11029;47.820;10.534;2024-02-21T06:50:56;0.50;80.10
21734;DHT22;11029;47.820;10.534;2024-02-21T06:53:41;0.60;80.30
21734;DHT22;11029;47.820;10.534;2024-02-21T06:56:28;0.70;79.90
21734;DHT22;11029;47.820;10.534;2024-02-21T06:59:15;0.70;79.40
21734;DHT22;11029;47.820;10.534;2024-02-21T07:02:01;0.80;79.40
21734;DHT22;11029;47.820;10.534;2024-02-21T07:04:46;0.90;78.80
21734;DHT22;11029;47.820;10.534;2024-02-21T07:07:32;0.90;78.90
21734;DHT22;11029;47.820;10.534;2024-02-21T07:10:18;1.00;78.90
21734;DHT22;11029;47.820;10.534;2024-02-21T07:13:04;1.00;78.40
21734;DHT22;11029;47.820;10.534;2024-02-21T07:15:49;1.10;78.60
21734;DHT22;11029;47.820;10.534;2024-02-21T07:18:35;1.10;78.50
21734;DHT22;11029;47.820;10.534;2024-02-21T07:21:21;1.10;77.60
21734;DHT22;11029;47.820;10.534;2024-02-21T07:24:06;1.00;78.10
21734;DHT22;11029;47.820;10.534;2024-02-21T07:26:52;1.00;78.50
21734;DHT22;11029;47.820;10.534;2024-02-21T07:29:38;1.10;79.60
21734;DHT22;11029;47.820;10.534;2024-02-21T07:32:24;1.30;78.50
21734;DHT22;11029;47.820;10.534;2024-02-21T07:35:09;1.40;78.20
21734;DHT22;11029;47.820;10.534;2024-02-21T07:37:57;1.50;77.80
21734;DHT22;11029;47.820;10.534;2024-02-21T07:40:44;1.70;76.80
21734;DHT22;11029;47.820;10.534;2024-02-21T07:43:30;1.80;77.20
21734;DHT22;11029;47.820;10.534;2024-02-21T07:46:15;2.00;76.50
21734;DHT22;11029;47.820;10.534;2024-02-21T07:49:01;2.10;76.20
21734;DHT22;11029;47.820;10.534;2024-02-21T07:51:47;2.20;75.70
21734;DHT22;11029;47.820;10.534;2024-02-21T07:54:33;2.40;75.10
21734;DHT22;11029;47.820;10.534;2024-02-21T07:57:18;2.60;72.70
21734;DHT22;11029;47.820;10.534;2024-02-21T08:00:04;2.70;73.00
21734;DHT22;11029;47.820;10.534;2024-02-21T08:02:56;2.60;72.20
21734;DHT22;11029;47.820;10.534;2024-02-21T08:05:42;2.60;73.40
21734;DHT22;11029;47.820;10.534;2024-02-21T08:08:27;3.00;73.30
21734;DHT22;11029;47.820;10.534;2024-02-21T08:11:13;3.20;71.80
21734;DHT22;11029;47.820;10.534;2024-02-21T08:13:59;3.30;70.70
21734;DHT22;11029;47.820;10.534;2024-02-21T08:16:46;3.40;71.20
21734;DHT22;11029;47.820;10.534;2024-02-21T08:19:32;3.70;70.00
21734;DHT22;11029;47.820;10.534;2024-02-21T08:22:18;3.90;67.80
21734;DHT22;11029;47.820;10.534;2024-02-21T08:25:04;3.90;68.60
21734;DHT22;11029;47.820;10.534;2024-02-21T08:27:50;4.20;68.30
21734;DHT22;11029;47.820;10.534;2024-02-21T08:30:36;4.50;68.10
21734;DHT22;11029;47.820;10.534;2024-02-21T08:33:22;4.80;67.10
21734;DHT22;11029;47.820;10.534;2024-02-21T08:36:18;4.90;66.90
21734;DHT22;11029;47.820;10.534;2024-02-21T08:39:04;5.10;67.10
21734;DHT22;11029;47.820;10.534;2024-02-21T08:41:50;5.20;66.70
21734;DHT22;11029;47.820;10.534;2024-02-21T08:44:42;5.40;66.10
21734;DHT22;11029;47.820;10.534;2024-02-21T08:47:28;5.50;65.60
21734;DHT22;11029;47.820;10.534;2024-02-21T08:50:15;5.70;65.40
21734;DHT22;11029;47.820;10.534;2024-02-21T08:53:12;5.80;64.80
21734;DHT22;11029;47.820;10.534;2024-02-21T08:55:59;6.00;63.60
21734;DHT22;11029;47.820;10.534;2024-02-21T08:58:45;6.10;62.20
21734;DHT22;11029;47.820;10.534;2024-02-21T09:01:32;6.20;62.70
21734;DHT22;11029;47.820;10.534;2024-02-21T09:04:20;6.30;62.30
21734;DHT22;11029;47.820;10.534;2024-02-21T09:07:06;6.20;62.20
21734;DHT22;11029;47.820;10.534;2024-02-21T09:09:51;6.30;62.10
21734;DHT22;11029;47.820;10.534;2024-02-21T09:12:37;6.30;62.50
21734;DHT22;11029;47.820;10.534;2024-02-21T09:15:23;6.60;60.20
21734;DHT22;11029;47.820;10.534;2024-02-21T09:18:09;6.70;61.00
21734;DHT22;11029;47.820;10.534;2024-02-21T09:20:55;6.90;61.00
21734;DHT22;11029;47.820;10.534;2024-02-21T09:23:44;7.10;60.70
21734;DHT22;11029;47.820;10.534;2024-02-21T09:26:30;7.40;59.70
21734;DHT22;11029;47.820;10.534;2024-02-21T09:29:16;7.60;59.00
21734;DHT22;11029;47.820;10.534;2024-02-21T09:32:02;7.70;55.50
21734;DHT22;11029;47.820;10.534;2024-02-21T09:34:48;7.30;54.60
21734;DHT22;11029;47.820;10.534;2024-02-21T09:37:34;7.30;56.60
21734;DHT22;11029;47.820;10.534;2024-02-21T09:40:20;7.50;54.40
21734;DHT22;11029;47.820;10.534;2024-02-21T09:43:06;7.80;55.00
21734;DHT22;11029;47.820;10.534;2024-02-21T09:45:55;8.20;54.60
21734;DHT22;11029;47.820;10.534;2024-02-21T09:52:10;8.70;53.00
21734;DHT22;11029;47.820;10.534;2024-02-21T09:54:59;8.90;53.60
21734;DHT22;11029;47.820;10.534;2024-02-21T09:57:46;9.00;50.30
21734;DHT22;11029;47.820;10.534;2024-02-21T10:00:32;9.10;47.70
21734;DHT22;11029;47.820;10.534;2024-02-21T10:03:18;9.20;46.50
21734;DHT22;11029;47.820;10.534;2024-02-21T10:06:04;9.20;47.30
21734;DHT22;11029;47.820;10.534;2024-02-21T10:08:53;9.40;47.00
21734;DHT22;11029;47.820;10.534;2024-02-21T10:11:39;9.00;46.80
21734;DHT22;11029;47.820;10.534;2024-02-21T10:14:24;8.50;46.90
21734;DHT22;11029;47.820;10.534;2024-02-21T10:17:16;8.30;47.90
21734;DHT22;11029;47.820;10.534;2024-02-21T10:20:10;8.70;48.80
21734;DHT22;11029;47.820;10.534;2024-02-21T10:23:01;8.80;47.90
21734;DHT22;11029;47.820;10.534;2024-02-21T10:25:48;8.60;42.60
21734;DHT22;11029;47.820;10.534;2024-02-21T10:28:37;8.40;39.90
21734;DHT22;11029;47.820;10.534;2024-02-21T10:31:28;8.50;40.70
21734;DHT22;11029;47.820;10.534;2024-02-21T10:34:16;8.60;42.10
21734;DHT22;11029;47.820;10.534;2024-02-21T10:37:04;8.80;40.30
21734;DHT22;11029;47.820;10.534;2024-02-21T10:39:54;8.60;40.20
21734;DHT22;11029;47.820;10.534;2024-02-21T10:42:40;8.80;41.60
21734;DHT22;11029;47.820;10.534;2024-02-21T10:48:22;8.60;41.90
21734;DHT22;11029;47.820;10.534;2024-02-21T10:51:19;8.60;41.50
21734;DHT22;11029;47.820;10.534;2024-02-21T10:54:30;8.80;41.80
21734;DHT22;11029;47.820;10.534;2024-02-21T10:57:23;9.00;41.90
21734;DHT22;11029;47.820;10.534;2024-02-21T11:00:11;9.20;42.50
21734;DHT22;11029;47.820;10.534;2024-02-21T11:02:58;9.30;41.90
21734;DHT22;11029;47.820;10.534;2024-02-21T11:05:45;9.40;42.30
21734;DHT22;11029;47.820;10.534;2024-02-21T11:08:31;9.50;41.30
21734;DHT22;11029;47.820;10.534;2024-02-21T11:11:18;9.40;42.90
21734;DHT22;11029;47.820;10.534;2024-02-21T11:14:20;9.50;42.10
21734;DHT22;11029;47.820;10.534;2024-02-21T11:17:19;9.60;40.70
21734;DHT22;11029;47.820;10.534;2024-02-21T11:20:13;9.60;40.90
21734;DHT22;11029;47.820;10.534;2024-02-21T11:22:59;9.60;40.10
21734;DHT22;11029;47.820;10.534;2024-02-21T11:25:46;9.70;42.20
21734;DHT22;11029;47.820;10.534;2024-02-21T11:28:33;9.80;41.80
21734;DHT22;11029;47.820;10.534;2024-02-21T11:31:19;9.90;41.10
21734;DHT22;11029;47.820;10.534;2024-02-21T11:34:04;10.10;41.50
21734;DHT22;11029;47.820;10.534;2024-02-21T11:36:51;10.30;40.50
21734;DHT22;11029;47.820;10.534;2024-02-21T11:39:37;10.00;40.90
21734;DHT22;11029;47.820;10.534;2024-02-21T11:42:27;9.90;41.50
21734;DHT22;11029;47.820;10.534;2024-02-21T11:45:15;10.10;41.30
21734;DHT22;11029;47.820;10.534;2024-02-21T11:48:01;10.30;40.20
21734;DHT22;11029;47.820;10.534;2024-02-21T11:50:55;10.50;41.20
21734;DHT22;11029;47.820;10.534;2024-02-21T11:53:41;10.50;41.40
21734;DHT22;11029;47.820;10.534;2024-02-21T11:56:41;10.70;42.40
21734;DHT22;11029;47.820;10.534;2024-02-21T11:59:29;10.80;40.60
21734;DHT22;11029;47.820;10.534;2024-02-21T12:02:16;10.90;40.60
21734;DHT22;11029;47.820;10.534;2024-02-21T12:05:02;10.80;40.80
21734;DHT22;11029;47.820;10.534;2024-02-21T12:07:49;10.60;41.70
21734;DHT22;11029;47.820;10.534;2024-02-21T12:10:36;10.60;41.50
21734;DHT22;11029;47.820;10.534;2024-02-21T12:13:23;10.90;40.10
21734;DHT22;11029;47.820;10.534;2024-02-21T12:16:10;11.20;41.20
21734;DHT22;11029;47.820;10.534;2024-02-21T12:18:57;11.20;39.30
21734;DHT22;11029;47.820;10.534;2024-02-21T12:21:43;11.10;40.50
21734;DHT22;11029;47.820;10.534;2024-02-21T12:24:30;11.20;41.30
21734;DHT22;11029;47.820;10.534;2024-02-21T12:27:15;11.20;41.80
21734;DHT22;11029;47.820;10.534;2024-02-21T12:30:01;11.20;40.70
21734;DHT22;11029;47.820;10.534;2024-02-21T12:32:51;11.20;40.70
21734;DHT22;11029;47.820;10.534;2024-02-21T12:35:37;11.10;40.20
21734;DHT22;11029;47.820;10.534;2024-02-21T12:38:22;11.10;39.70
21734;DHT22;11029;47.820;10.534;2024-02-21T12:41:08;11.10;40.40
21734;DHT22;11029;47.820;10.534;2024-02-21T12:43:54;11.00;40.70
21734;DHT22;11029;47.820;10.534;2024-02-21T12:46:40;11.00;41.00
21734;DHT22;11029;47.820;10.534;2024-02-21T12:49:25;11.00;41.40
21734;DHT22;11029;47.820;10.534;2024-02-21T12:52:14;11.30;42.50
21734;DHT22;11029;47.820;10.534;2024-02-21T12:55:00;11.40;43.80
21734;DHT22;11029;47.820;10.534;2024-02-21T12:57:46;11.50;42.00
21734;DHT22;11029;47.820;10.534;2024-02-21T13:00:31;11.50;41.20
21734;DHT22;11029;47.820;10.534;2024-02-21T13:03:17;11.70;41.30
21734;DHT22;11029;47.820;10.534;2024-02-21T13:06:02;11.70;41.40
21734;DHT22;11029;47.820;10.534;2024-02-21T13:08:48;12.00;41.40
21734;DHT22;11029;47.820;10.534;2024-02-21T13:11:34;12.40;42.20
21734;DHT22;11029;47.820;10.534;2024-02-21T13:14:20;12.60;42.80
21734;DHT22;11029;47.820;10.534;2024-02-21T13:17:08;12.70;42.20
21734;DHT22;11029;47.820;10.534;2024-02-21T13:19:54;12.60;42.00
21734;DHT22;11029;47.820;10.534;2024-02-21T13:22:40;12.70;42.40
21734;DHT22;11029;47.820;10.534;2024-02-21T13:25:26;12.70;41.90
21734;DHT22;11029;47.820;10.534;2024-02-21T13:28:12;12.60;42.00
21734;DHT22;11029;47.820;10.534;2024-02-21T13:30:58;12.60;42.60
21734;DHT22;11029;47.820;10.534;2024-02-21T13:33:44;12.40;40.90
21734;DHT22;11029;47.820;10.534;2024-02-21T13:36:29;12.40;42.20
21734;DHT22;11029;47.820;10.534;2024-02-21T13:39:15;12.30;41.30
21734;DHT22;11029;47.820;10.534;2024-02-21T13:42:02;12.40;41.80
21734;DHT22;11029;47.820;10.534;2024-02-21T13:44:47;12.50;41.60
21734;DHT22;11029;47.820;10.534;2024-02-21T13:47:33;12.60;42.40
21734;DHT22;11029;47.820;10.534;2024-02-21T13:50:27;12.60;41.90
21734;DHT22;11029;47.820;10.534;2024-02-21T13:53:15;12.70;41.60
21734;DHT22;11029;47.820;10.534;2024-02-21T13:56:03;12.70;41.70
21734;DHT22;11029;47.820;10.534;2024-02-21T13:58:49;12.40;42.60
21734;DHT22;11029;47.820;10.534;2024-02-21T14:01:35;12.60;43.00
21734;DHT22;11029;47.820;10.534;2024-02-21T14:04:21;12.80;42.80
21734;DHT22;11029;47.820;10.534;2024-02-21T14:07:07;13.00;42.60
21734;DHT22;11029;47.820;10.534;2024-02-21T14:09:53;13.10;43.70
21734;DHT22;11029;47.820;10.534;2024-02-21T14:12:38;13.30;42.00
21734;DHT22;11029;47.820;10.534;2024-02-21T14:15:25;13.60;41.80
21734;DHT22;11029;47.820;10.534;2024-02-21T14:18:10;13.50;40.50
21734;DHT22;11029;47.820;10.534;2024-02-21T14:20:56;13.40;39.90
21734;DHT22;11029;47.820;10.534;2024-02-21T14:23:41;13.10;39.90
21734;DHT22;11029;47.820;10.534;2024-02-21T14:26:28;13.20;40.50
21734;DHT22;11029;47.820;10.534;2024-02-21T14:29:15;12.70;40.40
21734;DHT22;11029;47.820;10.534;2024-02-21T14:32:00;12.60;42.20
21734;DHT22;11029;47.820;10.534;2024-02-21T14:34:46;12.20;43.50
21734;DHT22;11029;47.820;10.534;2024-02-21T14:37:32;12.50;43.30
21734;DHT22;11029;47.820;10.534;2024-02-21T14:40:17;12.60;42.80
21734;DHT22;11029;47.820;10.534;2024-02-21T14:43:04;12.50;43.00
21734;DHT22;11029;47.820;10.534;2024-02-21T14:45:50;12.10;43.90
21734;DHT22;11029;47.820;10.534;2024-02-21T14:48:35;12.10;44.40
21734;DHT22;11029;47.820;10.534;2024-02-21T14:51:22;12.00;44.80
21734;DHT22;11029;47.820;10.534;2024-02-21T14:54:07;11.90;45.20
21734;DHT22;11029;47.820;10.534;2024-02-21T14:56:53;11.80;45.60
21734;DHT22;11029;47.820;10.534;2024-02-21T14:59:40;11.70;45.80
21734;DHT22;11029;47.820;10.534;2024-02-21T15:02:26;11.50;45.20
21734;DHT22;11029;47.820;10.534;2024-02-21T15:05:14;11.20;48.00
21734;DHT22;11029;47.820;10.534;2024-02-21T15:07:59;11.20;48.90
21734;DHT22;11029;47.820;10.534;2024-02-21T15:10:45;11.10;49.70
21734;DHT22;11029;47.820;10.534;2024-02-21T15:13:31;10.90;50.40
21734;DHT22;11029;47.820;10.534;2024-02-21T15:16:16;10.70;51.00
21734;DHT22;11029;47.820;10.534;2024-02-21T15:19:02;10.50;52.10
21734;DHT22;11029;47.820;10.534;2024-02-21T15:21:48;10.30;52.80
21734;DHT22;11029;47.820;10.534;2024-02-21T15:24:34;10.20;53.40
21734;DHT22;11029;47.820;10.534;2024-02-21T15:27:20;10.10;53.40
21734;DHT22;11029;47.820;10.534;2024-02-21T15:30:05;10.10;53.50
21734;DHT22;11029;47.820;10.534;2024-02-21T15:32:53;10.10;54.20
21734;DHT22;11029;47.820;10.534;2024-02-21T15:35:40;10.10;54.80
21734;DHT22;11029;47.820;10.534;2024-02-21T15:38:26;10.10;54.60
21734;DHT22;11029;47.820;10.534;2024-02-21T15:41:14;10.10;55.10
21734;DHT22;11029;47.820;10.534;2024-02-21T15:44:00;10.10;55.30
21734;DHT22;11029;47.820;10.534;2024-02-21T15:46:45;10.10;55.40
21734;DHT22;11029;47.820;10.534;2024-02-21T15:49:30;10.10;55.40
21734;DHT22;11029;47.820;10.534;2024-02-21T15:52:17;10.10;55.50
21734;DHT22;11029;47.820;10.534;2024-02-21T15:55:04;10.10;55.50
21734;DHT22;11029;47.820;10.534;2024-02-21T15:57:52;10.00;55.60
21734;DHT22;11029;47.820;10.534;2024-02-21T16:00:38;10.00;55.60
21734;DHT22;11029;47.820;10.534;2024-02-21T16:03:23;10.00;55.40
21734;DHT22;11029;47.820;10.534;2024-02-21T16:06:09;10.00;55.60
21734;DHT22;11029;47.820;10.534;2024-02-21T16:08:55;9.90;57.00
21734;DHT22;11029;47.820;10.534;2024-02-21T16:11:41;9.80;57.60
21734;DHT22;11029;47.820;10.534;2024-02-21T16:14:27;9.80;57.50
21734;DHT22;11029;47.820;10.534;2024-02-21T16:17:13;9.70;57.60
21734;DHT22;11029;47.820;10.534;2024-02-21T16:19:59;9.60;57.40
21734;DHT22;11029;47.820;10.534;2024-02-21T16:22:46;9.60;57.80
21734;DHT22;11029;47.820;10.534;2024-02-21T16:25:33;9.50;58.40
21734;DHT22;11029;47.820;10.534;2024-02-21T16:28:19;9.40;58.60
21734;DHT22;11029;47.820;10.534;2024-02-21T16:31:05;9.30;57.60
21734;DHT22;11029;47.820;10.534;2024-02-21T16:33:50;9.30;58.10
21734;DHT22;11029;47.820;10.534;2024-02-21T16:36:37;9.30;57.00
21734;DHT22;11029;47.820;10.534;2024-02-21T16:39:27;9.30;57.10
21734;DHT22;11029;47.820;10.534;2024-02-21T16:42:12;9.20;57.10
21734;DHT22;11029;47.820;10.534;2024-02-21T16:44:59;9.20;58.10
21734;DHT22;11029;47.820;10.534;2024-02-21T16:47:45;9.10;58.80
21734;DHT22;11029;47.820;10.534;2024-02-21T16:50:31;9.00;58.90
21734;DHT22;11029;47.820;10.534;2024-02-21T16:53:23;8.90;59.20
21734;DHT22;11029;47.820;10.534;2024-02-21T16:56:09;8.90;59.90
21734;DHT22;11029;47.820;10.534;2024-02-21T16:58:55;8.80;60.80
21734;DHT22;11029;47.820;10.534;2024-02-21T17:01:41;8.70;61.10
21734;DHT22;11029;47.820;10.534;2024-02-21T17:04:27;8.60;61.40
21734;DHT22;11029;47.820;10.534;2024-02-21T17:07:13;8.40;62.20
21734;DHT22;11029;47.820;10.534;2024-02-21T17:09:59;8.30;62.90
21734;DHT22;11029;47.820;10.534;2024-02-21T17:12:46;8.20;63.70
21734;DHT22;11029;47.820;10.534;2024-02-21T17:15:32;8.20;64.00
21734;DHT22;11029;47.820;10.534;2024-02-21T17:18:18;8.00;64.60
21734;DHT22;11029;47.820;10.534;2024-02-21T17:21:05;8.00;65.10
21734;DHT22;11029;47.820;10.534;2024-02-21T17:23:51;7.90;65.00
21734;DHT22;11029;47.820;10.534;2024-02-21T17:26:37;7.80;64.30
21734;DHT22;11029;47.820;10.534;2024-02-21T17:29:22;7.60;63.00
21734;DHT22;11029;47.820;10.534;2024-02-21T17:32:08;7.50;62.80